Warsaw, Poland
Current Conditions -  °F | °C
As of 12:30 PM on Thursday 29 Jan 2015 (Local Time) from EPWA Reporting Station
Broken Clouds Broken Clouds  
Wind Chill: 29°   Ceiling: 1300
Heat Index: 36°   Visibility: 6mi
Dew Point: 32°   Wind: 8mph
Humidity: 87%   Direction: 200°SSW
Pressure: 29.38"   Gusts: NA
Location:  52.26°N, 21.02°E
Report Text: EPWA 291030Z 20007KT 9999 BKN013 02/M00 Q0995 R33/2///95 BECMG BKN020
Loading
Personal Weather Stations






























Interactive Weather Map New forecast layout! Learn more

10-Day Weather Forecast

Advertisements
Track Severe Weather on mobile